createdAt,value
2017-07-30T00:02:21.361Z,4.20
2017-07-30T00:04:49.723Z,4.47
2017-07-30T00:07:18.042Z,4.27
2017-07-30T00:09:46.382Z,4.40
2017-07-30T00:12:14.708Z,5.03
2017-07-30T00:14:43.054Z,4.13
2017-07-30T00:17:21.467Z,4.23
2017-07-30T00:19:49.792Z,3.70
2017-07-30T00:22:18.118Z,3.90
2017-07-30T00:24:46.459Z,3.73
2017-07-30T00:27:14.775Z,4.10
2017-07-30T00:29:43.196Z,4.10
2017-07-30T00:32:11.535Z,4.27
2017-07-30T00:34:39.874Z,4.17
2017-07-30T00:37:08.205Z,4.20
2017-07-30T00:39:36.532Z,3.97
2017-07-30T00:42:04.871Z,4.70
2017-07-30T00:44:33.192Z,4.00
2017-07-30T00:47:01.525Z,4.13
2017-07-30T00:49:29.833Z,4.20
2017-07-30T00:51:58.176Z,3.60
2017-07-30T00:54:26.493Z,3.77
2017-07-30T00:56:54.836Z,4.23
2017-07-30T00:59:23.319Z,3.87
2017-07-30T01:01:51.668Z,3.90
2017-07-30T01:04:19.997Z,3.90
2017-07-30T01:06:48.314Z,4.90
2017-07-30T01:09:16.643Z,5.70
2017-07-30T01:11:44.959Z,3.80
2017-07-30T01:14:13.293Z,4.67
2017-07-30T01:16:41.622Z,3.63
2017-07-30T01:19:09.959Z,4.83
2017-07-30T01:21:38.284Z,3.87
2017-07-30T01:24:06.635Z,3.40
2017-07-30T01:26:34.951Z,4.30
2017-07-30T01:29:03.284Z,4.57
2017-07-30T01:31:31.608Z,4.87
2017-07-30T01:33:59.937Z,4.40
2017-07-30T01:36:28.351Z,4.77
2017-07-30T01:38:56.694Z,4.57
2017-07-30T01:41:25.000Z,5.27
2017-07-30T01:43:53.342Z,4.70
2017-07-30T01:46:21.676Z,5.70
2017-07-30T01:48:49.981Z,5.10
2017-07-30T01:51:18.328Z,5.10
2017-07-30T01:53:46.651Z,4.40
2017-07-30T01:56:14.994Z,5.00
2017-07-30T01:58:43.317Z,4.73
2017-07-30T02:01:19.433Z,4.20
2017-07-30T02:03:47.949Z,3.90
2017-07-30T02:06:16.287Z,4.60
2017-07-30T02:08:44.661Z,4.10
2017-07-30T02:11:13.011Z,4.40
2017-07-30T02:13:41.343Z,4.13
2017-07-30T02:16:09.669Z,4.57
2017-07-30T02:18:38.136Z,5.50
2017-07-30T02:21:06.479Z,5.20
2017-07-30T02:23:34.794Z,4.50
2017-07-30T02:26:03.109Z,4.93
2017-07-30T02:28:31.447Z,4.73
2017-07-30T02:30:59.769Z,5.30
2017-07-30T02:33:28.146Z,4.63
2017-07-30T02:35:56.467Z,4.07
2017-07-30T02:38:24.811Z,4.53
2017-07-30T02:40:53.137Z,5.23
2017-07-30T02:43:21.502Z,4.53
2017-07-30T02:45:49.822Z,4.60
2017-07-30T02:48:18.162Z,5.37
2017-07-30T02:50:46.531Z,5.30
2017-07-30T02:53:14.967Z,4.80
2017-07-30T02:55:43.278Z,4.60
2017-07-30T02:58:11.589Z,4.93
2017-07-30T03:00:39.926Z,5.07
2017-07-30T03:03:08.335Z,4.53
2017-07-30T03:05:36.668Z,4.40
2017-07-30T03:08:04.987Z,4.60
2017-07-30T03:10:33.325Z,4.80
2017-07-30T03:13:09.179Z,4.63
2017-07-30T03:15:37.502Z,5.10
2017-07-30T03:18:05.815Z,4.87
2017-07-30T03:20:34.148Z,4.20
2017-07-30T03:23:02.445Z,5.23
2017-07-30T03:25:30.786Z,4.80
2017-07-30T03:27:59.092Z,4.40
2017-07-30T03:30:27.430Z,4.97
2017-07-30T03:32:55.738Z,4.43
2017-07-30T03:35:24.060Z,4.10
2017-07-30T03:37:52.374Z,4.80
2017-07-30T03:40:20.677Z,4.67
2017-07-30T03:42:49.009Z,4.70
2017-07-30T03:45:18.249Z,5.00
2017-07-30T03:47:46.585Z,4.77
2017-07-30T03:50:14.894Z,4.67
2017-07-30T03:52:43.231Z,5.27
2017-07-30T03:55:11.543Z,5.87
2017-07-30T03:57:39.949Z,5.13
2017-07-30T04:00:08.267Z,4.97
2017-07-30T04:02:59.483Z,4.97
2017-07-30T04:05:27.807Z,4.83
2017-07-30T04:07:56.152Z,5.20
2017-07-30T04:10:24.470Z,5.90
2017-07-30T04:12:52.826Z,5.60
2017-07-30T04:15:21.148Z,5.70
2017-07-30T04:17:49.475Z,6.10
2017-07-30T04:20:17.808Z,5.50
2017-07-30T04:22:46.131Z,5.77
2017-07-30T04:25:14.474Z,6.90
2017-07-30T04:30:40.371Z,5.90
2017-07-30T04:33:08.685Z,5.43
2017-07-30T04:35:37.037Z,6.33
2017-07-30T04:38:05.359Z,5.47
2017-07-30T04:40:33.694Z,5.73
2017-07-30T04:43:06.180Z,6.40
2017-07-30T04:45:34.515Z,6.73
2017-07-30T04:48:02.839Z,7.13
2017-07-30T04:50:32.155Z,7.30
2017-07-30T04:53:00.479Z,7.63
2017-07-30T04:55:28.831Z,8.07
2017-07-30T04:57:57.148Z,7.23
2017-07-30T05:00:25.476Z,6.60
2017-07-30T05:02:53.805Z,8.80
2017-07-30T05:05:22.152Z,7.60
2017-07-30T05:07:50.499Z,7.53
2017-07-30T05:10:23.490Z,6.77
2017-07-30T05:12:51.825Z,6.53
2017-07-30T05:15:20.141Z,6.90
2017-07-30T05:17:52.847Z,7.60
2017-07-30T05:20:21.162Z,6.93
2017-07-30T05:22:49.499Z,6.17
2017-07-30T05:25:17.818Z,7.50
2017-07-30T05:27:46.167Z,8.03
2017-07-30T05:30:14.492Z,7.77
2017-07-30T05:32:44.758Z,7.07
2017-07-30T05:35:13.072Z,6.50
2017-07-30T05:37:41.391Z,8.50
2017-07-30T05:40:10.705Z,6.47
2017-07-30T05:42:39.021Z,5.83
2017-07-30T05:45:07.371Z,6.80
2017-07-30T05:50:37.003Z,6.03
2017-07-30T05:53:05.317Z,5.77
2017-07-30T05:55:33.645Z,5.30
2017-07-30T05:58:01.966Z,4.63
2017-07-30T06:00:30.289Z,5.20
2017-07-30T06:03:06.419Z,4.00
2017-07-30T06:05:34.768Z,3.60
2017-07-30T06:08:03.087Z,4.00
2017-07-30T06:10:50.205Z,4.33
2017-07-30T06:13:20.461Z,3.87
2017-07-30T06:15:50.815Z,3.60
2017-07-30T06:18:20.087Z,3.73
2017-07-30T06:20:48.419Z,3.83
2017-07-30T06:23:16.749Z,4.30
2017-07-30T06:25:45.068Z,4.60
2017-07-30T06:28:13.416Z,3.80
2017-07-30T06:33:36.740Z,3.20
2017-07-30T06:36:05.064Z,2.90
2017-07-30T06:38:33.436Z,2.87
2017-07-30T06:41:01.761Z,3.17
2017-07-30T06:43:30.112Z,2.87
2017-07-30T06:45:58.422Z,3.40
2017-07-30T06:48:37.790Z,3.10
2017-07-30T06:51:06.107Z,2.40
2017-07-30T06:53:34.448Z,3.10
2017-07-30T06:56:02.749Z,2.60
2017-07-30T06:58:31.063Z,2.70
2017-07-30T07:00:59.403Z,2.53
2017-07-30T07:03:27.726Z,2.27
2017-07-30T07:06:16.998Z,2.80
2017-07-30T07:08:45.357Z,2.57
2017-07-30T07:11:13.695Z,2.40
2017-07-30T07:13:42.013Z,3.23
2017-07-30T07:16:10.370Z,2.30
2017-07-30T07:18:38.679Z,2.70
2017-07-30T07:21:07.006Z,2.20
2017-07-30T07:23:35.326Z,2.40
2017-07-30T07:26:03.809Z,2.70
2017-07-30T07:28:32.130Z,3.10
2017-07-30T07:31:04.206Z,2.83
2017-07-30T07:33:32.524Z,2.07
2017-07-30T07:36:00.862Z,2.30
2017-07-30T07:38:30.131Z,2.50
2017-07-30T07:40:58.457Z,2.63
2017-07-30T07:43:26.794Z,2.00
2017-07-30T07:45:56.038Z,3.57
2017-07-30T07:48:24.382Z,2.83
2017-07-30T07:50:52.696Z,2.00
2017-07-30T07:53:21.020Z,2.37
2017-07-30T07:55:49.340Z,3.70
2017-07-30T07:58:17.665Z,2.53
2017-07-30T08:00:45.980Z,2.93
2017-07-30T08:03:14.314Z,2.50
2017-07-30T08:05:42.640Z,2.20
2017-07-30T08:08:14.651Z,2.80
2017-07-30T08:10:44.953Z,2.50
2017-07-30T08:13:13.287Z,2.30
2017-07-30T08:15:47.037Z,3.27
2017-07-30T08:18:15.508Z,2.20
2017-07-30T08:20:43.818Z,2.30
2017-07-30T08:23:12.147Z,2.73
2017-07-30T08:25:42.398Z,2.33
2017-07-30T08:28:10.822Z,2.50
2017-07-30T08:30:40.073Z,2.37
2017-07-30T08:33:12.756Z,2.73
2017-07-30T08:35:42.547Z,2.33
2017-07-30T08:41:10.910Z,2.57
2017-07-30T08:43:39.237Z,3.93
2017-07-30T08:46:07.591Z,2.20
2017-07-30T08:48:35.914Z,2.47
2017-07-30T08:51:04.245Z,2.93
2017-07-30T08:53:40.739Z,2.30
2017-07-30T08:56:09.069Z,2.43
2017-07-30T08:58:37.405Z,2.13
2017-07-30T09:01:06.655Z,1.83
2017-07-30T09:03:34.967Z,2.53
2017-07-30T09:06:03.303Z,2.10
2017-07-30T09:08:31.618Z,2.23
2017-07-30T09:10:59.939Z,2.20
2017-07-30T09:13:28.321Z,2.70
2017-07-30T09:15:56.658Z,2.13
2017-07-30T09:18:25.025Z,2.07
2017-07-30T09:20:53.329Z,2.50
2017-07-30T09:23:21.653Z,1.90
2017-07-30T09:25:50.721Z,1.90
2017-07-30T09:28:19.067Z,1.83
2017-07-30T09:30:47.382Z,2.20
2017-07-30T09:33:15.725Z,1.80
2017-07-30T09:35:44.036Z,1.40
2017-07-30T09:38:20.381Z,1.70
2017-07-30T09:40:48.697Z,1.90
2017-07-30T09:43:17.020Z,1.60
2017-07-30T09:45:45.362Z,1.60
2017-07-30T09:48:15.595Z,1.67
2017-07-30T09:50:43.924Z,1.80
2017-07-30T09:53:12.241Z,2.03
2017-07-30T09:55:40.836Z,1.50
2017-07-30T09:58:11.113Z,1.40
2017-07-30T10:00:39.451Z,1.37
2017-07-30T10:03:07.767Z,1.50
2017-07-30T10:05:36.096Z,2.63
2017-07-30T10:08:04.405Z,1.70
2017-07-30T10:16:38.086Z,2.40
2017-07-30T10:19:06.402Z,1.70
2017-07-30T10:21:34.749Z,1.70
2017-07-30T10:24:03.455Z,1.80
2017-07-30T10:26:31.968Z,1.50
2017-07-30T10:29:15.459Z,1.57
2017-07-30T10:31:43.826Z,1.80
2017-07-30T10:34:12.148Z,1.73
2017-07-30T10:36:40.471Z,1.40
2017-07-30T10:39:08.812Z,1.53
2017-07-30T10:41:37.139Z,1.80
2017-07-30T10:44:05.470Z,1.83
2017-07-30T10:46:33.784Z,1.80
2017-07-30T10:49:02.123Z,1.60
2017-07-30T10:51:30.435Z,1.60
2017-07-30T10:53:58.779Z,1.67
2017-07-30T10:56:27.099Z,1.73
2017-07-30T10:58:55.443Z,2.20
2017-07-30T11:01:23.768Z,1.80
2017-07-30T11:03:52.115Z,1.83
2017-07-30T11:06:20.442Z,1.63
2017-07-30T11:08:48.778Z,1.60
2017-07-30T11:11:17.099Z,1.63
2017-07-30T11:13:45.417Z,1.60
2017-07-30T11:16:13.762Z,1.90
2017-07-30T11:18:42.092Z,2.00
2017-07-30T11:21:10.440Z,1.70
2017-07-30T11:23:43.965Z,1.70
2017-07-30T11:26:12.364Z,1.57
2017-07-30T11:28:41.532Z,1.80
2017-07-30T11:31:09.865Z,1.70
2017-07-30T11:34:00.973Z,1.50
2017-07-30T11:36:29.311Z,1.33
2017-07-30T11:38:57.627Z,1.43
2017-07-30T11:41:25.956Z,2.07
2017-07-30T11:43:54.279Z,1.70
2017-07-30T11:46:22.630Z,1.90
2017-07-30T11:48:50.941Z,1.50
2017-07-30T11:51:19.277Z,1.20
2017-07-30T11:53:47.595Z,1.73
2017-07-30T11:56:15.936Z,1.27
2017-07-30T11:58:44.247Z,1.60
2017-07-30T12:01:12.584Z,1.43
2017-07-30T12:03:40.913Z,1.90
2017-07-30T12:06:09.248Z,1.87
2017-07-30T12:08:37.591Z,1.90
2017-07-30T12:11:05.912Z,1.73
2017-07-30T12:13:34.238Z,2.20
2017-07-30T12:16:02.546Z,2.20
2017-07-30T12:18:30.887Z,1.40
2017-07-30T12:20:59.208Z,1.47
2017-07-30T12:23:27.544Z,1.70
2017-07-30T12:26:18.747Z,2.37
2017-07-30T12:28:47.081Z,1.53
2017-07-30T12:31:15.398Z,1.60
2017-07-30T12:33:43.747Z,1.87
2017-07-30T12:36:12.054Z,2.00
2017-07-30T12:38:40.401Z,2.10
2017-07-30T12:41:08.729Z,1.40
2017-07-30T12:46:32.686Z,1.70
2017-07-30T12:49:01.028Z,1.63
2017-07-30T12:51:29.346Z,1.50
2017-07-30T12:53:57.687Z,1.50
2017-07-30T12:56:26.034Z,1.50
2017-07-30T12:58:54.355Z,1.60
2017-07-30T13:01:26.257Z,1.83
2017-07-30T13:03:54.773Z,2.07
2017-07-30T13:06:23.114Z,1.83
2017-07-30T13:08:51.554Z,1.60
2017-07-30T13:11:19.893Z,1.90
2017-07-30T13:13:48.201Z,1.73
2017-07-30T13:16:16.525Z,1.60
2017-07-30T13:18:44.851Z,1.77
2017-07-30T13:21:13.196Z,1.90
2017-07-30T13:23:41.506Z,1.77
2017-07-30T13:26:09.829Z,1.47
2017-07-30T13:28:38.182Z,1.40
2017-07-30T13:31:06.500Z,1.30
2017-07-30T13:33:34.829Z,1.10
2017-07-30T13:36:03.155Z,1.50
2017-07-30T13:38:35.110Z,1.40
2017-07-30T13:41:03.443Z,1.10
2017-07-30T13:43:31.788Z,1.37
2017-07-30T13:46:00.118Z,1.60
2017-07-30T13:48:28.459Z,1.50
2017-07-30T13:50:56.784Z,1.20
2017-07-30T13:53:25.123Z,1.27
2017-07-30T13:55:53.435Z,1.57
2017-07-30T14:01:21.779Z,1.10
2017-07-30T14:03:50.123Z,1.10
2017-07-30T14:06:18.433Z,1.03
2017-07-30T14:08:46.740Z,1.30
2017-07-30T14:11:15.096Z,1.33
2017-07-30T14:13:43.414Z,1.57
2017-07-30T14:16:11.744Z,2.43
2017-07-30T14:18:40.076Z,1.90
2017-07-30T14:21:08.409Z,2.03
2017-07-30T14:23:36.731Z,1.90
2017-07-30T14:26:05.221Z,2.20
2017-07-30T14:28:34.448Z,1.70
2017-07-30T14:31:02.780Z,1.90
2017-07-30T14:33:32.017Z,2.53
2017-07-30T14:36:00.369Z,2.23
2017-07-30T14:38:28.685Z,1.80
2017-07-30T14:40:57.000Z,2.33
2017-07-30T14:43:25.344Z,1.90
2017-07-30T14:45:53.663Z,3.07
2017-07-30T14:48:22.002Z,1.83
2017-07-30T14:50:50.309Z,1.80
2017-07-30T14:53:18.753Z,1.60
2017-07-30T14:55:47.529Z,2.30
2017-07-30T14:58:15.911Z,1.40
2017-07-30T15:00:44.339Z,1.83
2017-07-30T15:03:12.947Z,1.40
2017-07-30T15:05:41.429Z,1.20
2017-07-30T15:08:09.756Z,1.47
2017-07-30T15:10:38.115Z,1.23
2017-07-30T15:13:06.439Z,1.63
2017-07-30T15:15:34.913Z,1.30
2017-07-30T15:18:03.225Z,1.60
2017-07-30T15:20:31.599Z,1.23
2017-07-30T15:23:05.238Z,1.50
2017-07-30T15:25:34.077Z,1.20
2017-07-30T15:28:02.657Z,1.00
2017-07-30T15:30:31.297Z,1.43
2017-07-30T15:32:59.695Z,1.20
2017-07-30T15:35:28.030Z,1.50
2017-07-30T15:37:56.330Z,1.40
2017-07-30T15:40:24.661Z,1.33
2017-07-30T15:42:53.894Z,1.97
2017-07-30T15:45:23.170Z,1.40
2017-07-30T15:47:51.792Z,1.43
2017-07-30T15:50:20.324Z,1.30
2017-07-30T15:52:48.726Z,1.60
2017-07-30T15:55:17.045Z,1.20
2017-07-30T15:57:45.583Z,2.00
2017-07-30T16:00:14.025Z,1.53
2017-07-30T16:02:42.384Z,1.20
2017-07-30T16:05:10.716Z,1.33
2017-07-30T16:07:39.042Z,1.47
2017-07-30T16:10:07.366Z,1.40
2017-07-30T16:12:35.715Z,1.53
2017-07-30T16:15:04.034Z,1.33
2017-07-30T16:17:32.368Z,1.80
2017-07-30T16:20:00.684Z,1.60
2017-07-30T16:22:29.039Z,1.73
2017-07-30T16:24:57.351Z,1.53
2017-07-30T16:27:25.658Z,1.57
2017-07-30T16:29:54.464Z,1.53
2017-07-30T16:32:22.793Z,1.60
2017-07-30T16:34:51.134Z,1.50
2017-07-30T16:37:19.446Z,1.40
2017-07-30T16:39:47.796Z,1.13
2017-07-30T16:42:16.110Z,1.50
2017-07-30T16:44:44.463Z,1.43
2017-07-30T16:47:12.957Z,1.10
2017-07-30T16:49:41.391Z,1.70
2017-07-30T16:52:09.743Z,1.30
2017-07-30T16:54:38.131Z,1.80
2017-07-30T16:57:06.474Z,2.40
2017-07-30T16:59:34.857Z,1.67
2017-07-30T17:02:03.229Z,1.83
2017-07-30T17:04:31.553Z,3.17
2017-07-30T17:06:59.884Z,2.27
2017-07-30T17:09:28.215Z,1.60
2017-07-30T17:11:56.555Z,1.03
2017-07-30T17:14:24.891Z,1.60
2017-07-30T17:16:53.232Z,2.33
2017-07-30T17:19:21.560Z,2.00
2017-07-30T17:21:49.886Z,1.33
2017-07-30T17:24:18.185Z,2.40
2017-07-30T17:26:46.545Z,2.20
2017-07-30T17:29:14.895Z,1.77
2017-07-30T17:31:43.223Z,1.33
2017-07-30T17:34:11.562Z,1.90
2017-07-30T17:36:40.800Z,1.50
2017-07-30T17:39:09.133Z,1.43
2017-07-30T17:41:37.453Z,1.10
2017-07-30T17:44:05.792Z,1.10
2017-07-30T17:46:34.105Z,1.30
2017-07-30T17:49:02.453Z,1.20
2017-07-30T17:51:30.780Z,1.63
2017-07-30T17:53:59.114Z,1.73
2017-07-30T17:56:27.472Z,1.10
2017-07-30T17:58:55.814Z,1.20
2017-07-30T18:01:24.138Z,1.23
2017-07-30T18:03:52.495Z,1.40
2017-07-30T18:06:20.817Z,1.23
2017-07-30T18:08:49.122Z,1.60
2017-07-30T18:11:17.482Z,1.10
2017-07-30T18:13:45.797Z,1.20
2017-07-30T18:16:14.117Z,1.10
2017-07-30T18:18:42.423Z,1.40
2017-07-30T18:21:10.757Z,1.30
2017-07-30T18:23:47.413Z,1.20
2017-07-30T18:28:53.528Z,1.90
2017-07-30T18:31:21.870Z,1.70
2017-07-30T18:33:50.191Z,1.50
2017-07-30T18:36:19.383Z,1.67
2017-07-30T18:38:50.982Z,1.10
2017-07-30T18:41:20.115Z,1.70
2017-07-30T18:43:48.433Z,1.70
2017-07-30T18:46:16.790Z,1.50
2017-07-30T18:48:47.878Z,1.43
2017-07-30T18:51:18.791Z,1.60
2017-07-30T18:53:48.007Z,1.40
2017-07-30T18:56:16.326Z,1.70
2017-07-30T18:58:45.794Z,1.80
2017-07-30T19:01:14.137Z,1.67
2017-07-30T19:03:44.942Z,1.90
2017-07-30T19:06:14.212Z,1.30
2017-07-30T19:08:42.567Z,1.70
2017-07-30T19:11:10.885Z,1.40
2017-07-30T19:13:39.763Z,2.10
2017-07-30T19:16:11.188Z,2.10
2017-07-30T19:18:40.841Z,1.70
2017-07-30T19:21:11.040Z,1.70
2017-07-30T19:23:40.106Z,1.57
2017-07-30T19:26:09.505Z,1.90
2017-07-30T19:28:42.047Z,1.50
2017-07-30T19:31:12.961Z,1.53
2017-07-30T19:33:43.740Z,1.70
2017-07-30T19:36:12.513Z,1.97
2017-07-30T19:41:41.573Z,1.90
2017-07-30T19:44:12.397Z,2.30
2017-07-30T19:46:40.850Z,2.60
2017-07-30T19:49:09.282Z,8.93
2017-07-30T19:51:37.617Z,3.00
2017-07-30T19:54:06.064Z,5.83
2017-07-30T19:56:34.406Z,3.80
2017-07-30T19:59:02.719Z,3.40
2017-07-30T20:01:31.070Z,5.00
2017-07-30T20:03:59.382Z,3.90
2017-07-30T20:06:27.736Z,4.10
2017-07-30T20:08:56.046Z,3.10
2017-07-30T20:11:24.383Z,3.60
2017-07-30T20:13:52.720Z,3.20
2017-07-30T20:16:21.062Z,3.30
2017-07-30T20:18:49.384Z,3.50
2017-07-30T20:21:17.721Z,2.40
2017-07-30T20:23:46.047Z,2.87
2017-07-30T20:26:14.366Z,3.37
2017-07-30T20:28:42.698Z,3.20
2017-07-30T20:31:11.114Z,3.20
2017-07-30T20:33:39.459Z,2.90
2017-07-30T20:36:07.877Z,2.93
2017-07-30T20:38:36.374Z,2.93
2017-07-30T20:41:04.740Z,2.60
2017-07-30T20:43:33.118Z,2.77
2017-07-30T20:46:01.483Z,3.07
2017-07-30T20:48:29.815Z,2.77
2017-07-30T20:50:58.142Z,3.33
2017-07-30T20:53:26.493Z,3.07
2017-07-30T20:55:54.873Z,4.07
2017-07-30T20:58:23.226Z,4.33
2017-07-30T21:00:51.538Z,3.37
2017-07-30T21:03:19.850Z,3.60
2017-07-30T21:05:48.183Z,4.40
2017-07-30T21:08:16.509Z,3.70
2017-07-30T21:10:45.003Z,4.50
2017-07-30T21:13:13.335Z,3.70
2017-07-30T21:15:41.675Z,3.47
2017-07-30T21:18:09.982Z,3.83
2017-07-30T21:20:38.318Z,3.87
2017-07-30T21:23:06.638Z,3.60
2017-07-30T21:25:34.965Z,2.93
2017-07-30T21:28:03.274Z,4.17
2017-07-30T21:30:31.612Z,4.57
2017-07-30T21:32:59.925Z,3.30
2017-07-30T21:35:28.261Z,3.90
2017-07-30T21:37:56.566Z,4.13
2017-07-30T21:40:24.894Z,5.20
2017-07-30T21:42:53.222Z,4.70
2017-07-30T21:45:21.553Z,3.87
2017-07-30T21:47:49.871Z,4.63
2017-07-30T21:50:18.192Z,4.03
2017-07-30T21:52:46.524Z,4.57
2017-07-30T21:55:14.835Z,4.73
2017-07-30T21:57:43.171Z,4.40
2017-07-30T22:00:11.477Z,4.80
2017-07-30T22:02:39.842Z,5.40
2017-07-30T22:05:08.155Z,5.70
2017-07-30T22:07:36.499Z,4.97
2017-07-30T22:10:04.809Z,4.93
2017-07-30T22:12:33.148Z,4.40
2017-07-30T22:15:01.470Z,3.97
2017-07-30T22:17:29.794Z,4.90
2017-07-30T22:19:58.121Z,5.40
2017-07-30T22:22:26.470Z,4.20
2017-07-30T22:24:54.815Z,4.10
2017-07-30T22:27:23.124Z,4.60
2017-07-30T22:29:51.456Z,3.93
2017-07-30T22:32:19.766Z,4.00
2017-07-30T22:34:48.106Z,3.90
2017-07-30T22:37:16.422Z,4.00
2017-07-30T22:39:44.781Z,3.70
2017-07-30T22:42:13.105Z,4.20
2017-07-30T22:44:41.440Z,4.67
2017-07-30T22:47:09.749Z,4.33
2017-07-30T22:49:38.115Z,3.70
2017-07-30T22:52:06.422Z,4.50
2017-07-30T22:54:34.770Z,3.70
2017-07-30T22:57:03.079Z,3.67
2017-07-30T22:59:31.395Z,4.30
2017-07-30T23:01:59.743Z,3.40
2017-07-30T23:04:28.061Z,5.00
2017-07-30T23:06:56.452Z,3.93
2017-07-30T23:09:24.775Z,3.60
2017-07-30T23:11:53.116Z,2.90
2017-07-30T23:14:21.445Z,4.30
2017-07-30T23:16:49.789Z,3.33
2017-07-30T23:19:18.101Z,3.17
2017-07-30T23:21:46.442Z,3.60
2017-07-30T23:24:14.759Z,3.97
2017-07-30T23:26:43.103Z,3.50
2017-07-30T23:29:11.414Z,2.90
2017-07-30T23:31:39.752Z,2.80
2017-07-30T23:34:08.055Z,3.00
2017-07-30T23:36:36.376Z,3.57
2017-07-30T23:39:04.710Z,3.60
2017-07-30T23:41:33.058Z,3.37
2017-07-30T23:44:01.398Z,3.03
2017-07-30T23:46:29.704Z,3.33
2017-07-30T23:48:58.053Z,3.10
2017-07-30T23:51:26.366Z,2.93
2017-07-30T23:53:54.698Z,3.30
2017-07-30T23:56:23.015Z,2.60
2017-07-30T23:58:51.365Z,4.83
